JBU641 KBOS-KCLE
Flight info
| Callsign | JBU641 |
|---|---|
| Flight time | 1h 27m |
| Altitude | 36000 |
| Route | REVSS6 REVSS DCT CTR DCT HNK DCT STUBN DCT REXXY Q436 HERBA DCT THOME TRYBE4 |
| Aircraft | A320/M-SDFGHIRWY/LB1 |
Departure
| Time | 2026-05-04 21:14 |
|---|---|
| Airport | Boston Logan International Airport (KBOS) |
Arrival
| Time | 2026-05-04 22:41 |
|---|---|
| Airport | Cleveland Hopkins International Airport (KCLE) |
| Time | Latitude | Longitude | Altitude | Speed | Heading |
|---|---|---|---|---|---|
| 2026-05-04 20:38 | 42.36609 | -71.01367 | 26 ft | 0 kts | 288° |
| 2026-05-04 21:05 | 42.36603 | -71.01343 | 25 ft | 4 kts | 288° |
| 2026-05-04 21:05 | 42.36597 | -71.01316 | 25 ft | 4 kts | 296° |
| 2026-05-04 21:06 | 42.36584 | -71.01296 | 30 ft | 4 kts | 10° |
| 2026-05-04 21:06 | 42.36562 | -71.01306 | 31 ft | 2 kts | 25° |
| 2026-05-04 21:06 | 42.36545 | -71.01317 | 28 ft | 1 kts | 25° |
| 2026-05-04 21:09 | 42.36553 | -71.01312 | 29 ft | 5 kts | 25° |
| 2026-05-04 21:09 | 42.36597 | -71.01287 | 27 ft | 9 kts | 20° |
| 2026-05-04 21:09 | 42.36668 | -71.01261 | 28 ft | 12 kts | 14° |
| 2026-05-04 21:10 | 42.36752 | -71.01244 | 25 ft | 13 kts | 347° |
| 2026-05-04 21:10 | 42.36830 | -71.01282 | 28 ft | 13 kts | 20° |
| 2026-05-04 21:10 | 42.36902 | -71.01205 | 27 ft | 14 kts | 40° |
| 2026-05-04 21:10 | 42.36955 | -71.01146 | 26 ft | 15 kts | 39° |
| 2026-05-04 21:11 | 42.37086 | -71.01046 | 27 ft | 17 kts | 23° |
| 2026-05-04 21:11 | 42.37159 | -71.00999 | 28 ft | 18 kts | 26° |
| 2026-05-04 21:11 | 42.37316 | -71.00897 | 27 ft | 20 kts | 22° |
| 2026-05-04 21:11 | 42.37407 | -71.00857 | 27 ft | 21 kts | 19° |
| 2026-05-04 21:12 | 42.37594 | -71.00766 | 28 ft | 23 kts | 20° |
| 2026-05-04 21:12 | 42.37696 | -71.00717 | 25 ft | 23 kts | 19° |
| 2026-05-04 21:12 | 42.37831 | -71.00564 | 28 ft | 20 kts | 106° |
| 2026-05-04 21:12 | 42.37774 | -71.00483 | 29 ft | 12 kts | 193° |
| 2026-05-04 21:13 | 42.37702 | -71.00518 | 28 ft | 26 kts | 202° |
| 2026-05-04 21:13 | 42.37315 | -71.00705 | 28 ft | 90 kts | 200° |
| 2026-05-04 21:13 | 42.36560 | -71.01072 | 30 ft | 138 kts | 201° |
| 2026-05-04 21:13 | 42.35665 | -71.01527 | 574 ft | 135 kts | 205° |
| 2026-05-04 21:14 | 42.34740 | -71.01839 | 1106 ft | 145 kts | 180° |
| 2026-05-04 21:14 | 42.33741 | -71.01301 | 1525 ft | 173 kts | 147° |
| 2026-05-04 21:14 | 42.32899 | -70.99960 | 1766 ft | 201 kts | 134° |
| 2026-05-04 21:14 | 42.32010 | -70.98406 | 2046 ft | 223 kts | 132° |
| 2026-05-04 21:15 | 42.31318 | -70.96428 | 2619 ft | 240 kts | 104° |
| 2026-05-04 21:15 | 42.31331 | -70.94068 | 3048 ft | 266 kts | 80° |
| 2026-05-04 21:15 | 42.31707 | -70.91510 | 3539 ft | 285 kts | 80° |
| 2026-05-04 21:15 | 42.32093 | -70.88892 | 4219 ft | 290 kts | 80° |
| 2026-05-04 21:16 | 42.32488 | -70.86189 | 4978 ft | 294 kts | 79° |
| 2026-05-04 21:16 | 42.32852 | -70.83450 | 5838 ft | 299 kts | 85° |
| 2026-05-04 21:16 | 42.32779 | -70.80636 | 6621 ft | 302 kts | 102° |
| 2026-05-04 21:16 | 42.32167 | -70.77926 | 7385 ft | 304 kts | 117° |
| 2026-05-04 21:17 | 42.31064 | -70.75494 | 8137 ft | 305 kts | 133° |
| 2026-05-04 21:17 | 42.29506 | -70.73564 | 8868 ft | 305 kts | 151° |
| 2026-05-04 21:17 | 42.27603 | -70.72359 | 9582 ft | 303 kts | 170° |
| 2026-05-04 21:17 | 42.25532 | -70.72008 | 10216 ft | 301 kts | 188° |
| 2026-05-04 21:18 | 42.23447 | -70.72406 | 10732 ft | 304 kts | 198° |
| 2026-05-04 21:18 | 42.21481 | -70.73373 | 11404 ft | 299 kts | 215° |
| 2026-05-04 21:18 | 42.19833 | -70.75042 | 12102 ft | 295 kts | 230° |
| 2026-05-04 21:18 | 42.18578 | -70.77272 | 12405 ft | 307 kts | 245° |
| 2026-05-04 21:19 | 42.17855 | -70.80048 | 12543 ft | 324 kts | 261° |
| 2026-05-04 21:19 | 42.17457 | -70.83116 | 12871 ft | 337 kts | 261° |
| 2026-05-04 21:19 | 42.17042 | -70.86249 | 13479 ft | 342 kts | 261° |
| 2026-05-04 21:19 | 42.16614 | -70.89424 | 13915 ft | 347 kts | 261° |
| 2026-05-04 21:20 | 42.16297 | -70.92662 | 14453 ft | 350 kts | 269° |
| 2026-05-04 21:20 | 42.16449 | -70.95936 | 15038 ft | 351 kts | 280° |
| 2026-05-04 21:20 | 42.17059 | -70.99130 | 15611 ft | 354 kts | 286° |
| 2026-05-04 21:20 | 42.17760 | -71.02323 | 16197 ft | 356 kts | 287° |
| 2026-05-04 21:21 | 42.18464 | -71.05538 | 16797 ft | 359 kts | 286° |
| 2026-05-04 21:21 | 42.19169 | -71.08783 | 17390 ft | 361 kts | 286° |
| 2026-05-04 21:21 | 42.19875 | -71.12045 | 18011 ft | 364 kts | 286° |
| 2026-05-04 21:21 | 42.20585 | -71.15332 | 18567 ft | 367 kts | 287° |
| 2026-05-04 21:22 | 42.21300 | -71.18649 | 19130 ft | 369 kts | 287° |
| 2026-05-04 21:22 | 42.22016 | -71.21979 | 19714 ft | 371 kts | 287° |
| 2026-05-04 21:22 | 42.22737 | -71.25326 | 20268 ft | 373 kts | 287° |
| 2026-05-04 21:22 | 42.23462 | -71.28702 | 20796 ft | 376 kts | 287° |
| 2026-05-04 21:23 | 42.24193 | -71.32106 | 21298 ft | 378 kts | 287° |
| 2026-05-04 21:23 | 42.24926 | -71.35522 | 21788 ft | 380 kts | 287° |
| 2026-05-04 21:23 | 42.25662 | -71.38959 | 22264 ft | 382 kts | 288° |
| 2026-05-04 21:23 | 42.26401 | -71.42417 | 22737 ft | 385 kts | 288° |
| 2026-05-04 21:24 | 42.27142 | -71.45897 | 23200 ft | 387 kts | 288° |
| 2026-05-04 21:24 | 42.27886 | -71.49399 | 23598 ft | 389 kts | 288° |
| 2026-05-04 21:24 | 42.28628 | -71.52910 | 23982 ft | 390 kts | 288° |
| 2026-05-04 21:24 | 42.29374 | -71.56443 | 24380 ft | 392 kts | 288° |
| 2026-05-04 21:25 | 42.30121 | -71.59986 | 24765 ft | 392 kts | 288° |
| 2026-05-04 21:25 | 42.30872 | -71.63538 | 25134 ft | 394 kts | 288° |
| 2026-05-04 21:25 | 42.31623 | -71.67098 | 25501 ft | 395 kts | 288° |
| 2026-05-04 21:25 | 42.32377 | -71.70672 | 25871 ft | 396 kts | 288° |
| 2026-05-04 21:26 | 42.33133 | -71.74258 | 26239 ft | 397 kts | 288° |
| 2026-05-04 21:26 | 42.33885 | -71.77852 | 26594 ft | 399 kts | 287° |
| 2026-05-04 21:26 | 42.34367 | -71.81566 | 26944 ft | 404 kts | 278° |
| 2026-05-04 21:26 | 42.34376 | -71.85380 | 27293 ft | 409 kts | 270° |
| 2026-05-04 21:27 | 42.34193 | -71.89215 | 27645 ft | 410 kts | 270° |
| 2026-05-04 21:27 | 42.34018 | -71.93043 | 28130 ft | 407 kts | 271° |
| 2026-05-04 21:27 | 42.33849 | -71.96855 | 28666 ft | 404 kts | 271° |
| 2026-05-04 21:27 | 42.33684 | -72.00640 | 29185 ft | 402 kts | 271° |
| 2026-05-04 21:28 | 42.33520 | -72.04404 | 29700 ft | 400 kts | 271° |
| 2026-05-04 21:28 | 42.33355 | -72.08141 | 30168 ft | 398 kts | 271° |
| 2026-05-04 21:28 | 42.33188 | -72.11872 | 30581 ft | 397 kts | 271° |
| 2026-05-04 21:28 | 42.33020 | -72.15596 | 30978 ft | 397 kts | 271° |
| 2026-05-04 21:29 | 42.32852 | -72.19315 | 31375 ft | 396 kts | 271° |
| 2026-05-04 21:29 | 42.32683 | -72.23024 | 31767 ft | 396 kts | 271° |
| 2026-05-04 21:29 | 42.32513 | -72.26735 | 32149 ft | 395 kts | 272° |
| 2026-05-04 21:29 | 42.32341 | -72.30434 | 32590 ft | 394 kts | 272° |
| 2026-05-04 21:30 | 42.32167 | -72.34122 | 33005 ft | 393 kts | 272° |
| 2026-05-04 21:30 | 42.31993 | -72.37806 | 33395 ft | 393 kts | 272° |
| 2026-05-04 21:30 | 42.31819 | -72.41482 | 33766 ft | 393 kts | 272° |
| 2026-05-04 21:30 | 42.31643 | -72.45162 | 34092 ft | 392 kts | 272° |
| 2026-05-04 21:31 | 42.31287 | -72.52522 | 34666 ft | 393 kts | 271° |
| 2026-05-04 21:31 | 42.31107 | -72.56210 | 34948 ft | 394 kts | 271° |
| 2026-05-04 21:31 | 42.30923 | -72.59901 | 35206 ft | 394 kts | 271° |
| 2026-05-04 21:32 | 42.30738 | -72.63595 | 35467 ft | 394 kts | 271° |
| 2026-05-04 21:32 | 42.30552 | -72.67284 | 35714 ft | 395 kts | 270° |
| 2026-05-04 21:32 | 42.30366 | -72.70991 | 35801 ft | 397 kts | 270° |
| 2026-05-04 21:33 | 42.29994 | -72.78485 | 35824 ft | 407 kts | 270° |
| 2026-05-04 21:33 | 42.29604 | -72.86132 | 35831 ft | 409 kts | 270° |
| 2026-05-04 21:34 | 42.29195 | -72.93797 | 35833 ft | 409 kts | 270° |
| 2026-05-04 21:34 | 42.28663 | -73.01466 | 35829 ft | 412 kts | 268° |
| 2026-05-04 21:35 | 42.27959 | -73.09155 | 35824 ft | 413 kts | 267° |
| 2026-05-04 21:35 | 42.27235 | -73.16853 | 35837 ft | 414 kts | 267° |
| 2026-05-04 21:36 | 42.26537 | -73.24564 | 35841 ft | 413 kts | 268° |
| 2026-05-04 21:36 | 42.25860 | -73.32268 | 35834 ft | 413 kts | 268° |
| 2026-05-04 21:37 | 42.25176 | -73.39975 | 35827 ft | 414 kts | 268° |
| 2026-05-04 21:37 | 42.24486 | -73.47678 | 35817 ft | 414 kts | 267° |
| 2026-05-04 21:38 | 42.23779 | -73.55393 | 35827 ft | 414 kts | 268° |
| 2026-05-04 21:38 | 42.23071 | -73.63105 | 35806 ft | 415 kts | 267° |
| 2026-05-04 21:39 | 42.22359 | -73.70831 | 35811 ft | 415 kts | 268° |
| 2026-05-04 21:39 | 42.21648 | -73.78504 | 35816 ft | 415 kts | 268° |
| 2026-05-04 21:40 | 42.20925 | -73.86287 | 35829 ft | 416 kts | 267° |
| 2026-05-04 21:40 | 42.20191 | -73.94027 | 35842 ft | 416 kts | 267° |
| 2026-05-04 21:41 | 42.19454 | -74.01719 | 35841 ft | 416 kts | 267° |
| 2026-05-04 21:41 | 42.18718 | -74.09465 | 35860 ft | 416 kts | 268° |
| 2026-05-04 21:42 | 42.17975 | -74.17200 | 35866 ft | 416 kts | 267° |
| 2026-05-04 21:42 | 42.17214 | -74.24933 | 35870 ft | 416 kts | 267° |
| 2026-05-04 21:43 | 42.16457 | -74.32665 | 35869 ft | 416 kts | 268° |
| 2026-05-04 21:43 | 42.15701 | -74.40399 | 35850 ft | 416 kts | 267° |
| 2026-05-04 21:44 | 42.14935 | -74.48126 | 35859 ft | 416 kts | 267° |
| 2026-05-04 21:44 | 42.14163 | -74.55855 | 35867 ft | 416 kts | 267° |
| 2026-05-04 21:45 | 42.13385 | -74.63571 | 35871 ft | 416 kts | 267° |
| 2026-05-04 21:45 | 42.12605 | -74.71298 | 35870 ft | 416 kts | 267° |
| 2026-05-04 21:46 | 42.11814 | -74.79019 | 35865 ft | 416 kts | 267° |
| 2026-05-04 21:46 | 42.11025 | -74.86738 | 35868 ft | 416 kts | 267° |
| 2026-05-04 21:47 | 42.10228 | -74.94465 | 35873 ft | 416 kts | 266° |
| 2026-05-04 21:47 | 42.09425 | -75.02133 | 35873 ft | 416 kts | 267° |
| 2026-05-04 21:48 | 42.08615 | -75.09846 | 35863 ft | 416 kts | 266° |
| 2026-05-04 21:48 | 42.07802 | -75.17556 | 35871 ft | 415 kts | 267° |
| 2026-05-04 21:49 | 42.06989 | -75.25248 | 35866 ft | 415 kts | 266° |
| 2026-05-04 21:49 | 42.06345 | -75.32949 | 35842 ft | 411 kts | 274° |
| 2026-05-04 21:50 | 42.06524 | -75.40613 | 35840 ft | 410 kts | 276° |
| 2026-05-04 21:50 | 42.06722 | -75.48285 | 35836 ft | 410 kts | 275° |
| 2026-05-04 21:51 | 42.06905 | -75.55952 | 35837 ft | 410 kts | 275° |
| 2026-05-04 21:51 | 42.07078 | -75.63626 | 35844 ft | 410 kts | 275° |
| 2026-05-04 21:52 | 42.07252 | -75.71302 | 35839 ft | 410 kts | 275° |
| 2026-05-04 21:52 | 42.07425 | -75.78976 | 35837 ft | 410 kts | 275° |
| 2026-05-04 21:53 | 42.07590 | -75.86643 | 35835 ft | 410 kts | 275° |
| 2026-05-04 21:53 | 42.07746 | -75.94313 | 35831 ft | 410 kts | 275° |
| 2026-05-04 21:54 | 42.07897 | -76.01975 | 35836 ft | 409 kts | 275° |
| 2026-05-04 21:54 | 42.08037 | -76.09636 | 35822 ft | 409 kts | 275° |
| 2026-05-04 21:55 | 42.08176 | -76.17294 | 35832 ft | 409 kts | 275° |
| 2026-05-04 21:55 | 42.08314 | -76.24958 | 35814 ft | 409 kts | 275° |
| 2026-05-04 21:56 | 42.08452 | -76.32602 | 35812 ft | 409 kts | 275° |
| 2026-05-04 21:56 | 42.08582 | -76.40246 | 35808 ft | 409 kts | 274° |
| 2026-05-04 21:57 | 42.08698 | -76.47842 | 35812 ft | 409 kts | 274° |
| 2026-05-04 21:57 | 42.08813 | -76.55493 | 35799 ft | 408 kts | 274° |
| 2026-05-04 21:58 | 42.08924 | -76.63127 | 35810 ft | 408 kts | 274° |
| 2026-05-04 21:58 | 42.09030 | -76.70757 | 35794 ft | 408 kts | 274° |
| 2026-05-04 21:59 | 42.09131 | -76.78387 | 35806 ft | 407 kts | 274° |
| 2026-05-04 21:59 | 42.09208 | -76.84725 | 35791 ft | 407 kts | 274° |
| 2026-05-04 22:00 | 42.09292 | -76.92355 | 35777 ft | 407 kts | 274° |
| 2026-05-04 22:00 | 42.09420 | -76.99973 | 35784 ft | 407 kts | 275° |
| 2026-05-04 22:01 | 42.09635 | -77.07565 | 35790 ft | 406 kts | 275° |
| 2026-05-04 22:01 | 42.09859 | -77.15155 | 35790 ft | 406 kts | 275° |
| 2026-05-04 22:02 | 42.10067 | -77.22745 | 35791 ft | 405 kts | 275° |
| 2026-05-04 22:02 | 42.10265 | -77.30322 | 35797 ft | 405 kts | 274° |
| 2026-05-04 22:03 | 42.10450 | -77.37898 | 35814 ft | 405 kts | 274° |
| 2026-05-04 22:03 | 42.10633 | -77.45478 | 35805 ft | 405 kts | 274° |
| 2026-05-04 22:04 | 42.10813 | -77.53050 | 35807 ft | 404 kts | 274° |
| 2026-05-04 22:04 | 42.10986 | -77.60625 | 35799 ft | 405 kts | 274° |
| 2026-05-04 22:05 | 42.11152 | -77.68195 | 35809 ft | 404 kts | 274° |
| 2026-05-04 22:05 | 42.11308 | -77.75762 | 35812 ft | 404 kts | 274° |
| 2026-05-04 22:06 | 42.11466 | -77.83326 | 35818 ft | 404 kts | 274° |
| 2026-05-04 22:06 | 42.11619 | -77.90890 | 35819 ft | 404 kts | 274° |
| 2026-05-04 22:07 | 42.11767 | -77.98453 | 35820 ft | 404 kts | 274° |
| 2026-05-04 22:07 | 42.11910 | -78.06005 | 35820 ft | 403 kts | 273° |
| 2026-05-04 22:08 | 42.12049 | -78.13502 | 35819 ft | 403 kts | 273° |
| 2026-05-04 22:08 | 42.12182 | -78.21056 | 35817 ft | 403 kts | 273° |
| 2026-05-04 22:09 | 42.12438 | -78.37117 | 35804 ft | 403 kts | 273° |
| 2026-05-04 22:10 | 42.12560 | -78.44666 | 35792 ft | 403 kts | 273° |
| 2026-05-04 22:10 | 42.12675 | -78.52214 | 35793 ft | 403 kts | 273° |
| 2026-05-04 22:11 | 42.12783 | -78.59715 | 35798 ft | 403 kts | 273° |
| 2026-05-04 22:11 | 42.12881 | -78.67256 | 35796 ft | 403 kts | 273° |
| 2026-05-04 22:12 | 42.12966 | -78.74803 | 35794 ft | 403 kts | 270° |
| 2026-05-04 22:12 | 42.11903 | -78.82228 | 35795 ft | 409 kts | 254° |
| 2026-05-04 22:13 | 42.10316 | -78.88276 | 35787 ft | 409 kts | 254° |
| 2026-05-04 22:13 | 42.08456 | -78.95450 | 35786 ft | 409 kts | 254° |
| 2026-05-04 22:14 | 42.06580 | -79.02678 | 35775 ft | 409 kts | 254° |
| 2026-05-04 22:14 | 42.04697 | -79.09910 | 35780 ft | 410 kts | 254° |
| 2026-05-04 22:15 | 42.02799 | -79.17135 | 35789 ft | 409 kts | 254° |
| 2026-05-04 22:15 | 42.00908 | -79.24343 | 35791 ft | 409 kts | 254° |
| 2026-05-04 22:16 | 41.99019 | -79.31568 | 35796 ft | 409 kts | 254° |
| 2026-05-04 22:16 | 41.97117 | -79.38766 | 35796 ft | 409 kts | 254° |
| 2026-05-04 22:17 | 41.95205 | -79.45969 | 35797 ft | 409 kts | 254° |
| 2026-05-04 22:17 | 41.93292 | -79.53166 | 35800 ft | 409 kts | 253° |
| 2026-05-04 22:18 | 41.91378 | -79.60359 | 35770 ft | 409 kts | 254° |
| 2026-05-04 22:18 | 41.90421 | -79.63958 | 35184 ft | 413 kts | 254° |
| 2026-05-04 22:18 | 41.89446 | -79.67619 | 34343 ft | 417 kts | 254° |
| 2026-05-04 22:18 | 41.88463 | -79.71294 | 33541 ft | 420 kts | 254° |
| 2026-05-04 22:19 | 41.87485 | -79.74946 | 32682 ft | 422 kts | 253° |
| 2026-05-04 22:19 | 41.86491 | -79.78650 | 31829 ft | 424 kts | 253° |
| 2026-05-04 22:19 | 41.85487 | -79.82376 | 30986 ft | 425 kts | 253° |
| 2026-05-04 22:19 | 41.84477 | -79.86106 | 30134 ft | 426 kts | 252° |
| 2026-05-04 22:20 | 41.83458 | -79.89865 | 29047 ft | 430 kts | 252° |
| 2026-05-04 22:20 | 41.82435 | -79.93635 | 28045 ft | 431 kts | 252° |
| 2026-05-04 22:20 | 41.81416 | -79.97396 | 27473 ft | 424 kts | 252° |
| 2026-05-04 22:20 | 41.80425 | -80.01040 | 27248 ft | 409 kts | 252° |
| 2026-05-04 22:21 | 41.79466 | -80.04557 | 27061 ft | 395 kts | 252° |
| 2026-05-04 22:21 | 41.78533 | -80.07982 | 26672 ft | 387 kts | 252° |
| 2026-05-04 22:21 | 41.77624 | -80.11350 | 26242 ft | 383 kts | 253° |
| 2026-05-04 22:21 | 41.76725 | -80.14701 | 25677 ft | 381 kts | 253° |
| 2026-05-04 22:22 | 41.75833 | -80.18029 | 25123 ft | 379 kts | 252° |
| 2026-05-04 22:22 | 41.74945 | -80.21340 | 24623 ft | 376 kts | 252° |
| 2026-05-04 22:22 | 41.74059 | -80.24626 | 24077 ft | 375 kts | 252° |
| 2026-05-04 22:22 | 41.73175 | -80.27887 | 23724 ft | 370 kts | 252° |
| 2026-05-04 22:23 | 41.72302 | -80.31103 | 23267 ft | 367 kts | 252° |
| 2026-05-04 22:23 | 41.71434 | -80.34304 | 22770 ft | 364 kts | 252° |
| 2026-05-04 22:23 | 41.70570 | -80.37483 | 22291 ft | 362 kts | 252° |
| 2026-05-04 22:23 | 41.69713 | -80.40634 | 21840 ft | 359 kts | 252° |
| 2026-05-04 22:24 | 41.68860 | -80.43752 | 21380 ft | 356 kts | 252° |
| 2026-05-04 22:24 | 41.68011 | -80.46854 | 20925 ft | 354 kts | 252° |
| 2026-05-04 22:24 | 41.67168 | -80.49933 | 20466 ft | 351 kts | 252° |
| 2026-05-04 22:24 | 41.66332 | -80.52983 | 19997 ft | 348 kts | 252° |
| 2026-05-04 22:25 | 41.65503 | -80.56013 | 19548 ft | 345 kts | 252° |
| 2026-05-04 22:25 | 41.64682 | -80.59023 | 19075 ft | 343 kts | 251° |
| 2026-05-04 22:25 | 41.63870 | -80.61996 | 18628 ft | 340 kts | 251° |
| 2026-05-04 22:25 | 41.63058 | -80.64955 | 18155 ft | 338 kts | 251° |
| 2026-05-04 22:26 | 41.62250 | -80.67890 | 17633 ft | 335 kts | 251° |
| 2026-05-04 22:26 | 41.61447 | -80.70797 | 17133 ft | 332 kts | 251° |
| 2026-05-04 22:26 | 41.60657 | -80.73639 | 16615 ft | 329 kts | 251° |
| 2026-05-04 22:26 | 41.59852 | -80.76524 | 16105 ft | 326 kts | 251° |
| 2026-05-04 22:27 | 41.59074 | -80.79315 | 15653 ft | 323 kts | 251° |
| 2026-05-04 22:27 | 41.58291 | -80.82117 | 15189 ft | 320 kts | 251° |
| 2026-05-04 22:27 | 41.57515 | -80.84893 | 14734 ft | 318 kts | 251° |
| 2026-05-04 22:27 | 41.56749 | -80.87642 | 14295 ft | 314 kts | 251° |
| 2026-05-04 22:28 | 41.55988 | -80.90365 | 13848 ft | 312 kts | 251° |
| 2026-05-04 22:28 | 41.55230 | -80.93065 | 13392 ft | 309 kts | 251° |
| 2026-05-04 22:28 | 41.54478 | -80.95740 | 12899 ft | 307 kts | 251° |
| 2026-05-04 22:28 | 41.53730 | -80.98400 | 12388 ft | 305 kts | 251° |
| 2026-05-04 22:29 | 41.52988 | -81.01048 | 11868 ft | 304 kts | 251° |
| 2026-05-04 22:29 | 41.52251 | -81.03681 | 11374 ft | 302 kts | 251° |
| 2026-05-04 22:29 | 41.51657 | -81.06358 | 10883 ft | 300 kts | 261° |
| 2026-05-04 22:29 | 41.51496 | -81.09085 | 10706 ft | 289 kts | 266° |
| 2026-05-04 22:30 | 41.51397 | -81.11709 | 10584 ft | 278 kts | 266° |
| 2026-05-04 22:30 | 41.51294 | -81.14237 | 10439 ft | 268 kts | 266° |
| 2026-05-04 22:30 | 41.51188 | -81.16702 | 10152 ft | 265 kts | 265° |
| 2026-05-04 22:30 | 41.51081 | -81.19136 | 9928 ft | 259 kts | 265° |
| 2026-05-04 22:31 | 41.50977 | -81.21502 | 9735 ft | 253 kts | 265° |
| 2026-05-04 22:31 | 41.50876 | -81.23845 | 9398 ft | 252 kts | 265° |
| 2026-05-04 22:31 | 41.50777 | -81.26171 | 9069 ft | 251 kts | 265° |
| 2026-05-04 22:31 | 41.50678 | -81.28491 | 8747 ft | 250 kts | 265° |
| 2026-05-04 22:32 | 41.50579 | -81.30796 | 8432 ft | 248 kts | 265° |
| 2026-05-04 22:32 | 41.50480 | -81.33093 | 8115 ft | 247 kts | 265° |
| 2026-05-04 22:32 | 41.50381 | -81.35369 | 7680 ft | 244 kts | 264° |
| 2026-05-04 22:32 | 41.50285 | -81.37631 | 7111 ft | 247 kts | 264° |
| 2026-05-04 22:33 | 41.50187 | -81.39887 | 6811 ft | 246 kts | 264° |
| 2026-05-04 22:33 | 41.50090 | -81.42165 | 6463 ft | 247 kts | 264° |
| 2026-05-04 22:33 | 41.50106 | -81.44464 | 6148 ft | 248 kts | 269° |
| 2026-05-04 22:33 | 41.50160 | -81.46759 | 5822 ft | 248 kts | 268° |
| 2026-05-04 22:34 | 41.50214 | -81.49046 | 5581 ft | 244 kts | 268° |
| 2026-05-04 22:34 | 41.50265 | -81.51283 | 5360 ft | 239 kts | 268° |
| 2026-05-04 22:34 | 41.50315 | -81.53466 | 5231 ft | 230 kts | 268° |
| 2026-05-04 22:34 | 41.50366 | -81.55505 | 5128 ft | 211 kts | 268° |
| 2026-05-04 22:35 | 41.50416 | -81.57403 | 4996 ft | 199 kts | 268° |
| 2026-05-04 22:35 | 41.50461 | -81.59212 | 4832 ft | 193 kts | 267° |
| 2026-05-04 22:35 | 41.50501 | -81.60978 | 4607 ft | 189 kts | 266° |
| 2026-05-04 22:35 | 41.50540 | -81.62703 | 4393 ft | 183 kts | 266° |
| 2026-05-04 22:36 | 41.50576 | -81.64390 | 4188 ft | 181 kts | 266° |
| 2026-05-04 22:36 | 41.50573 | -81.66054 | 4005 ft | 178 kts | 258° |
| 2026-05-04 22:36 | 41.50252 | -81.67623 | 3781 ft | 175 kts | 249° |
| 2026-05-04 22:36 | 41.49878 | -81.69160 | 3552 ft | 174 kts | 249° |
| 2026-05-04 22:37 | 41.49508 | -81.70690 | 3350 ft | 173 kts | 248° |
| 2026-05-04 22:37 | 41.49141 | -81.72213 | 3165 ft | 170 kts | 248° |
| 2026-05-04 22:37 | 41.48660 | -81.73614 | 2932 ft | 165 kts | 230° |
| 2026-05-04 22:37 | 41.47935 | -81.74751 | 2740 ft | 155 kts | 230° |
| 2026-05-04 22:38 | 41.47275 | -81.75803 | 2524 ft | 141 kts | 227° |
| 2026-05-04 22:38 | 41.46661 | -81.76780 | 2349 ft | 135 kts | 227° |
| 2026-05-04 22:38 | 41.46047 | -81.77753 | 2171 ft | 138 kts | 227° |
| 2026-05-04 22:38 | 41.45430 | -81.78731 | 1989 ft | 137 kts | 227° |
| 2026-05-04 22:39 | 41.44821 | -81.79696 | 1803 ft | 137 kts | 228° |
| 2026-05-04 22:39 | 41.44210 | -81.80671 | 1628 ft | 137 kts | 229° |
| 2026-05-04 22:39 | 41.43609 | -81.81623 | 1436 ft | 136 kts | 227° |
| 2026-05-04 22:39 | 41.43003 | -81.82563 | 1276 ft | 133 kts | 227° |
| 2026-05-04 22:40 | 41.42404 | -81.83546 | 1050 ft | 138 kts | 229° |
| 2026-05-04 22:40 | 41.41786 | -81.84521 | 871 ft | 137 kts | 226° |
| 2026-05-04 22:40 | 41.41189 | -81.85449 | 759 ft | 120 kts | 230° |
| 2026-05-04 22:40 | 41.40740 | -81.86159 | 755 ft | 76 kts | 229° |
| 2026-05-04 22:41 | 41.40501 | -81.86530 | 755 ft | 36 kts | 228° |
| 2026-05-04 22:41 | 41.40326 | -81.86651 | 742 ft | 23 kts | 172° |
| 2026-05-04 22:41 | 41.40201 | -81.86524 | 738 ft | 24 kts | 141° |
| 2026-05-04 22:41 | 41.40065 | -81.86378 | 736 ft | 25 kts | 138° |
| 2026-05-04 22:42 | 41.39989 | -81.86232 | 736 ft | 10 kts | 72° |
| 2026-05-04 22:42 | 41.40004 | -81.86200 | 735 ft | 0 kts | 53° |
| 2026-05-04 22:43 | 41.40015 | -81.86182 | 735 ft | 7 kts | 50° |
| 2026-05-04 22:43 | 41.40063 | -81.86106 | 735 ft | 13 kts | 50° |
| 2026-05-04 22:43 | 41.40127 | -81.86008 | 735 ft | 15 kts | 42° |
| 2026-05-04 22:44 | 41.40224 | -81.85950 | 736 ft | 16 kts | 5° |
| 2026-05-04 22:44 | 41.40327 | -81.85884 | 739 ft | 18 kts | 48° |
| 2026-05-04 22:44 | 41.40411 | -81.85753 | 740 ft | 19 kts | 50° |
| 2026-05-04 22:44 | 41.40501 | -81.85609 | 740 ft | 21 kts | 50° |
| 2026-05-04 22:45 | 41.40599 | -81.85453 | 737 ft | 23 kts | 49° |
| 2026-05-04 22:45 | 41.40640 | -81.85026 | 737 ft | 25 kts | 93° |
| 2026-05-04 22:45 | 41.40630 | -81.84791 | 737 ft | 26 kts | 92° |
| 2026-05-04 22:46 | 41.40619 | -81.84548 | 737 ft | 27 kts | 92° |
| 2026-05-04 22:46 | 41.40611 | -81.84311 | 737 ft | 25 kts | 91° |
| 2026-05-04 22:46 | 41.40627 | -81.84095 | 737 ft | 21 kts | 58° |
| 2026-05-04 22:46 | 41.40742 | -81.83987 | 737 ft | 20 kts | 32° |
| 2026-05-04 22:47 | 41.40842 | -81.83890 | 737 ft | 12 kts | 45° |
| 2026-05-04 22:47 | 41.40894 | -81.83883 | 737 ft | 8 kts | 313° |
| 2026-05-04 22:47 | 41.40918 | -81.83915 | 737 ft | 0 kts | 315° |
| 2026-05-04 22:47 | 41.40922 | -81.83919 | 737 ft | 0 kts | 315° |